• Join FlightAware (Why Join?)
  • Login
  • US Flag 
09:49AM EDT


 

Airport Tracker/Info


-or-


 

Live Flight TrackerFlight Track Log ✈ UCA597 ✈ 17-Mar-2014 ✈ KIAD - KBGM

Flight Track Log - Related Links

Times and Time Zones

All times are in EDT time to prevent confusion due to time zone crossing. See the UCA597 flight status page for this flight to view local times or setup timezone preferences in your user account.

Time Position Orientation Groundspeed Altitude Reporting Facility
EDT Latitude Longitude Course Direction KTS MPH feet Rate Location/Type
06:47PM 38.9833 -77.4500 330° Northwest 157 181 2,400  Level Potomac TRACON
06:50PM 39.1061 -77.5417 330° Northwest 205 236 4,200 720 Climbing Washington Center
06:51PM 39.1661 -77.5619 345° North 217 250 5,100 840 Climbing Washington Center
06:52PM 39.2267 -77.5583 North 217 250 5,900 780 Climbing Washington Center
06:53PM 39.2872 -77.5492 North 217 250 6,700 780 Climbing Washington Center
06:54PM 39.3478 -77.5372 North 217 250 7,500 1,020 Climbing Washington Center
06:55PM 39.4086 -77.5200 12° North 222 255 8,800 1,620 Climbing Washington Center
06:56PM 39.4567 -77.5081 11° North 201 231 10,800 1,680 Climbing Washington Center
06:57PM 39.5028 -77.4958 12° North 177 204 12,200 900 Climbing Washington Center
06:58PM 39.5550 -77.4808 12° North 177 204 12,700 600 Climbing Washington Center
06:59PM 39.6136 -77.4636 13° North 190 219 13,500 1,020 Climbing Washington Center
07:00PM 39.6928 -77.4514 North 238 274 15,000 1,200 Climbing New York Center
07:01PM 39.7533 -77.4519 360° North 227 261 16,100 1,020 Climbing New York Center
07:02PM 39.8117 -77.4519 360° North 216 249 17,100 840 Climbing New York Center
07:03PM 39.8722 -77.4497 North 216 249 17,800 840 Climbing New York Center
07:04PM 39.9347 -77.4503 360° North 216 249 18,800 600 Climbing New York Center
07:05PM 39.9972 -77.4508 360° North 216 249 19,000 60 Climbing New York Center
07:06PM 40.0683 -77.4467 North 242 278 19,000  Level New York Center
07:07PM 40.1433 -77.4483 359° North 254 292 19,000  Level New York Center
07:08PM 40.2186 -77.4447 North 268 308 19,000  Level New York Center
07:09PM 40.2958 -77.4442 360° North 274 315 19,000  Level New York Center
07:10PM 40.3708 -77.4458 359° North 274 315 19,000  Level New York Center
07:11PM 40.4458 -77.4450 360° North 274 315 19,000  Level New York Center
07:12PM 40.5211 -77.4414 North 274 315 19,000  Level New York Center
07:13PM 40.5942 -77.4428 359° North 274 315 19,000  Level New York Center
07:14PM 40.6653 -77.4389 North 274 315 19,000 -420 Level New York Center
07:15PM 40.7403 -77.4378 North 274 315 18,200 -660 Descending New York Center
07:16PM 40.8189 -77.4128 14° North 274 315 17,800 -540 Descending New York Center
07:17PM 40.8950 -77.3900 13° North 279 321 17,200 -420 Descending New York Center
07:18PM 40.9736 -77.3672 12° North 279 321 17,000 -540 Descending New York Center
07:19PM 41.0458 -77.3000 35° Northeast 284 327 16,200 -780 Descending New York Center
07:20PM 41.1083 -77.2261 42° Northeast 290 334 15,500 -660 Descending New York Center
07:21PM 41.1725 -77.1578 39° Northeast 290 334 15,000 -300 Descending New York Center
07:22PM 41.2322 -77.0917 40° Northeast 290 334 15,000  Level New York Center
07:23PM 41.2942 -77.0228 40° Northeast 290 334 15,000  Level New York Center
07:24PM 41.3564 -76.9514 41° Northeast 290 334 15,000  Level New York Center
07:25PM 41.4183 -76.8822 40° Northeast 290 334 15,000  Level New York Center
07:26PM 41.4800 -76.8158 39° Northeast 290 334 15,000  Level New York Center
07:27PM 41.5331 -76.7569 40° Northeast 285 328 15,000  Level New York Center
07:28PM 41.5994 -76.6794 41° Northeast 280 322 15,000 -540 Level New York Center
07:29PM 41.6547 -76.6122 42° Northeast 280 322 14,000 -1,020 Descending New York Center
07:30PM 41.7186 -76.5400 40° Northeast 286 329 13,000 -960 Descending New York Center
07:31PM 41.7825 -76.4706 39° Northeast 292 336 12,100 -1,080 Descending New York Center
07:32PM 41.8419 -76.4031 40° Northeast 292 336 10,900 -1,440 Descending New York Center
07:33PM 41.9058 -76.3250 42° Northeast 281 323 9,300 -1,500 Descending New York Center
07:34PM 41.9564 -76.2678 40° Northeast 271 312 8,000 -1,500 Descending New York Center
07:35PM 42.0139 -76.1944 43° Northeast 266 306 6,400 -1,380 Descending New York Center
07:36PM 42.0525 -76.1250 53° Northeast 254 292 5,200 -1,200 Descending New York Center
07:37PM 42.0953 -76.0503 52° Northeast 254 292 4,000 -840 Descending New York Center
07:38PM 42.1311 -75.9944 49° Northeast 228 262 3,600 -660 Descending New York Center
07:39PM 42.1578 -75.9544 48° Northeast 180 207 2,700 -780 Descending New York Center
07:40PM 42.1897 -75.9403 18° North 159 183 2,100 3,120 Descending New York Center
07:41PM 42.2158 -75.9142 37° Northeast 159 183 9,000 3,420 Climbing New York Center
07:42PM 42.2439 -75.8886 34° Northeast 159 183 9,000  Level New York Center
07:43PM 42.2700 -75.8625 36° Northeast 159 183 9,000  Level New York Center
07:44PM 42.2875 -75.8469 33° Northeast 159 183 9,000  Level New York Center
07:45PM 42.2875 -75.8469 270° West 159 183 9,000  Level New York Center
07:47PM 42.2088 -75.9546 225° Southwest  Level FlightAware Approximate
07:54PM 42.2000 -75.9667 North  Level FlightAware Approximate
07:55PM 42.2084 -75.9796 North  Level Estimated
07:56PM 42.2084 -75.9796 North  Level Estimated
07:57PM 42.2084 -75.9796 North  Level Estimated
07:58PM 42.2084 -75.9796 North  Level Estimated
07:59PM 42.2084 -75.9796 North  Level Estimated
08:00PM 42.2084 -75.9796 North  Level Estimated
08:01PM 42.2084 -75.9796 North  Level Estimated
08:02PM 42.2084 -75.9796 North  Level Estimated